Time;durP1;ratioP1;P1;durP2;ratioP2;P2;SDS_P1;SDS_P2;PMS_P1;PMS_P2;Temp;Humidity;BMP_temperature;BMP_pressure;BME280_temperature;BME280_humidity;BME280_pressure;Samples;Min_cycle;Max_cycle;Signal;HPM_P1;HPM_P2
2021/07/12 00:01:34;;;;;;;2.58;2.20;;;16.00;79.70;;;;;;5074794;28;20482;-75
2021/07/12 00:03:59;;;;;;;5.43;2.33;;;16.00;79.70;;;;;;5074904;28;20023;-75
2021/07/12 00:06:25;;;;;;;3.03;2.20;;;15.90;79.60;;;;;;5075024;28;20028;-74
2021/07/12 00:08:51;;;;;;;2.80;2.10;;;15.90;79.60;;;;;;5075000;28;20028;-74
2021/07/12 00:11:16;;;;;;;3.10;2.28;;;15.90;79.60;;;;;;5093063;28;20020;-75
2021/07/12 00:13:42;;;;;;;3.58;2.33;;;15.90;79.80;;;;;;5074766;28;20032;-74
2021/07/12 00:16:07;;;;;;;2.38;2.03;;;15.90;79.80;;;;;;5074956;28;20491;-73
2021/07/12 00:18:33;;;;;;;7.57;2.28;;;15.80;79.70;;;;;;5074829;28;20028;-75
2021/07/12 00:20:59;;;;;;;4.53;2.53;;;15.80;79.70;;;;;;5074738;28;20028;-72
2021/07/12 00:23:24;;;;;;;6.25;1.90;;;15.80;79.80;;;;;;5092667;28;20103;-73
2021/07/12 00:25:51;;;;;;;2.08;1.88;;;15.70;80.10;;;;;;5074739;28;20020;-75
2021/07/12 00:28:17;;;;;;;4.68;2.22;;;15.70;80.20;;;;;;5074422;28;20112;-74
2021/07/12 00:30:42;;;;;;;3.33;1.95;;;15.70;80.40;;;;;;5074407;28;20118;-75
2021/07/12 00:33:08;;;;;;;2.15;1.90;;;15.70;80.40;;;;;;5075721;28;20021;-76
2021/07/12 00:35:34;;;;;;;4.15;1.90;;;15.70;80.40;;;;;;5074975;28;20028;-77
2021/07/12 00:38:00;;;;;;;4.00;2.15;;;15.70;81.20;;;;;;5077384;28;20543;-75
2021/07/12 00:40:27;;;;;;;4.13;1.80;;;15.70;80.50;;;;;;5079472;28;20032;-75
2021/07/12 00:42:53;;;;;;;2.63;1.80;;;15.60;80.50;;;;;;5076840;28;20050;-75
2021/07/12 00:45:22;;;;;;;5.55;1.92;;;15.50;80.50;;;;;;5092965;28;20020;-75
2021/07/12 00:47:49;;;;;;;2.00;1.70;;;15.50;81.00;;;;;;5074493;28;20579;-75
2021/07/12 00:50:17;;;;;;;2.03;1.58;;;15.50;81.40;;;;;;5074675;28;20024;-74
2021/07/12 00:52:44;;;;;;;2.03;1.80;;;15.40;81.50;;;;;;5074436;28;20507;-74
2021/07/12 00:55:27;;;;;;;3.38;1.92;;;15.40;81.50;;;;;;5076255;28;20070;-74
2021/07/12 00:57:52;;;;;;;4.18;1.90;;;15.40;81.40;;;;;;5078302;28;20169;-75
2021/07/12 01:00:21;;;;;;;2.38;1.50;;;15.40;81.20;;;;;;5078477;28;20482;-74
2021/07/12 01:02:47;;;;;;;3.15;2.20;;;15.40;81.50;;;;;;5077960;28;20121;-75
2021/07/12 01:05:16;;;;;;;2.70;2.10;;;15.40;81.40;;;;;;5078190;28;20038;-75
2021/07/12 01:07:43;;;;;;;3.33;1.88;;;15.30;81.60;;;;;;5096268;28;20403;-72
2021/07/12 01:10:10;;;;;;;3.05;2.17;;;15.40;81.70;;;;;;5078173;28;20028;-75
2021/07/12 01:12:45;;;;;;;3.42;2.05;;;15.40;81.60;;;;;;5078021;28;20024;-75
2021/07/12 01:15:15;;;;;;;3.03;2.00;;;15.40;81.60;;;;;;5078250;28;20028;-72
2021/07/12 01:17:51;;;;;;;3.38;2.05;;;15.40;81.50;;;;;;5095955;28;20282;-75
2021/07/12 01:20:59;;;;;;;3.03;1.63;;;15.40;81.70;;;;;;5078116;28;20038;-78
2021/07/12 01:23:29;;;;;;;4.18;2.00;;;15.40;81.80;;;;;;5077960;28;20020;-77
2021/07/12 01:26:50;;;;;;;2.50;1.90;;;15.40;81.60;;;;;;5078037;28;20024;-77
2021/07/12 01:29:26;;;;;;;5.50;2.10;;;15.40;81.70;;;;;;4989886;28;20039;-77
2021/07/12 01:32:04;;;;;;;2.67;1.90;;;15.30;82.00;;;;;;5077610;28;20031;-76
2021/07/12 01:34:40;;;;;;;2.70;1.80;;;15.30;82.10;;;;;;5077717;28;20024;-76
2021/07/12 01:37:47;;;;;;;4.60;1.80;;;15.30;82.10;;;;;;5077887;28;20024;-76
2021/07/12 01:40:32;;;;;;;3.85;2.08;;;15.30;82.30;;;;;;5077622;28;20028;-76
2021/07/12 01:43:13;;;;;;;2.30;1.67;;;15.20;82.40;;;;;;5077786;28;20434;-77
2021/07/12 01:45:58;;;;;;;6.40;2.03;;;15.20;82.60;;;;;;5077615;28;20085;-76
2021/07/12 01:48:33;;;;;;;3.38;1.30;;;15.20;82.60;;;;;;5082539;28;20032;-77
2021/07/12 01:51:03;;;;;;;1.98;1.40;;;15.20;82.40;;;;;;5087770;28;20031;-76
2021/07/12 01:53:45;;;;;;;3.63;1.80;;;15.20;82.40;;;;;;5077207;28;20133;-76
2021/07/12 01:56:31;;;;;;;5.00;1.92;;;15.20;82.50;;;;;;5077306;28;20071;-78
2021/07/12 01:59:13;;;;;;;5.35;2.25;;;15.20;82.20;;;;;;5077002;28;20020;-77
2021/07/12 02:01:41;;;;;;;3.88;1.98;;;15.00;82.60;;;;;;5077157;28;20028;-77
2021/07/12 02:04:08;;;;;;;2.50;1.80;;;14.80;82.80;;;;;;5077197;28;20024;-77
2021/07/12 02:06:38;;;;;;;2.63;2.00;;;14.80;82.90;;;;;;5076255;28;20043;-77
2021/07/12 02:09:08;;;;;;;2.38;1.90;;;14.70;83.50;;;;;;5076903;28;20495;-77
2021/07/12 02:11:37;;;;;;;4.20;2.28;;;14.60;83.70;;;;;;5076830;28;20047;-77
2021/07/12 02:14:05;;;;;;;2.20;1.92;;;14.60;83.60;;;;;;5076795;28;20024;-77
2021/07/12 02:16:31;;;;;;;3.75;1.88;;;14.50;84.20;;;;;;5094924;28;20028;-77
2021/07/12 02:18:58;;;;;;;3.97;2.00;;;14.40;84.30;;;;;;5076558;28;20031;-77
2021/07/12 02:21:24;;;;;;;5.40;2.50;;;14.40;84.50;;;;;;5076690;28;20031;-77
2021/07/12 02:23:51;;;;;;;8.30;2.38;;;14.40;84.80;;;;;;5076510;28;20016;-77
2021/07/12 02:26:17;;;;;;;5.43;1.77;;;14.40;84.80;;;;;;5077045;28;20123;-76
2021/07/12 02:28:44;;;;;;;2.50;2.00;;;14.40;84.90;;;;;;5076685;28;20020;-77
2021/07/12 02:31:15;;;;;;;3.92;1.83;;;14.40;84.60;;;;;;5094780;28;20035;-76
2021/07/12 02:33:42;;;;;;;7.63;1.75;;;14.40;84.30;;;;;;5076346;28;20329;-76
2021/07/12 02:36:08;;;;;;;5.60;2.00;;;14.30;85.00;;;;;;5076264;28;20040;-76
2021/07/12 02:38:37;;;;;;;4.07;2.20;;;14.20;85.70;;;;;;5076398;28;20031;-77
2021/07/12 02:41:04;;;;;;;2.28;1.80;;;14.10;86.10;;;;;;5076588;28;20028;-76
2021/07/12 02:43:31;;;;;;;4.35;1.90;;;14.10;85.90;;;;;;5076068;28;20115;-76
2021/07/12 02:45:58;;;;;;;4.28;1.90;;;14.00;86.30;;;;;;5076520;28;20034;-76
2021/07/12 02:48:24;;;;;;;3.10;2.13;;;14.00;86.40;;;;;;5076325;28;20060;-75
2021/07/12 02:50:52;;;;;;;2.55;2.10;;;14.00;86.40;;;;;;5076162;28;20409;-76
2021/07/12 02:53:30;;;;;;;2.15;1.80;;;14.10;86.30;;;;;;5076180;28;20050;-76
2021/07/12 02:55:57;;;;;;;3.05;2.10;;;14.10;86.30;;;;;;5076265;28;20039;-76
2021/07/12 02:58:22;;;;;;;2.55;1.95;;;14.10;86.10;;;;;;5076138;28;20028;-76
2021/07/12 03:00:48;;;;;;;4.75;1.90;;;14.10;86.10;;;;;;5075953;28;20053;-77
2021/07/12 03:03:14;;;;;;;2.60;2.13;;;14.10;85.80;;;;;;5076041;28;20028;-77
2021/07/12 03:05:40;;;;;;;3.35;1.50;;;14.00;87.10;;;;;;5075760;28;20024;-76
2021/07/12 03:08:08;;;;;;;3.88;1.80;;;13.90;86.60;;;;;;5076333;28;20028;-76
2021/07/12 03:10:39;;;;;;;7.60;1.90;;;13.90;86.80;;;;;;5075898;28;20024;-76
2021/07/12 03:13:07;;;;;;;4.18;1.83;;;13.90;86.80;;;;;;5075835;28;20073;-76
2021/07/12 03:15:40;;;;;;;1.95;1.80;;;13.80;86.70;;;;;;5075696;28;20035;-76
2021/07/12 03:18:11;;;;;;;4.07;2.03;;;13.90;87.10;;;;;;5074738;28;20365;-76
2021/07/12 03:20:38;;;;;;;2.88;1.63;;;13.80;87.30;;;;;;5075649;28;20060;-76
2021/07/12 03:23:09;;;;;;;2.85;1.63;;;13.90;87.50;;;;;;5075441;28;20039;-74
2021/07/12 03:25:36;;;;;;;2.25;1.70;;;13.80;87.40;;;;;;5075417;28;20498;-75
2021/07/12 03:28:04;;;;;;;4.40;2.03;;;13.90;87.30;;;;;;5075053;28;20392;-75
2021/07/12 03:30:32;;;;;;;4.80;1.80;;;13.90;87.10;;;;;;5075314;28;20491;-74
2021/07/12 03:32:58;;;;;;;3.47;1.85;;;13.90;86.90;;;;;;5093563;28;20031;-74
2021/07/12 03:35:32;;;;;;;2.47;1.90;;;13.90;87.60;;;;;;5075335;28;20114;-74
2021/07/12 03:37:57;;;;;;;1.98;1.80;;;13.90;86.80;;;;;;5075453;28;20030;-74
2021/07/12 03:40:23;;;;;;;2.33;2.13;;;13.80;87.00;;;;;;5093128;28;20383;-75
2021/07/12 03:42:50;;;;;;;3.33;2.05;;;13.70;87.40;;;;;;5077074;28;20024;-77
2021/07/12 03:45:15;;;;;;;4.78;2.25;;;13.70;87.60;;;;;;5093293;28;20047;-77
2021/07/12 03:47:43;;;;;;;3.20;2.00;;;13.70;87.30;;;;;;5074937;28;20059;-76
2021/07/12 03:50:12;;;;;;;2.33;1.92;;;13.70;87.30;;;;;;5075122;28;20020;-76
2021/07/12 03:52:45;;;;;;;2.75;2.00;;;13.70;87.20;;;;;;5074892;28;20432;-76
2021/07/12 03:55:13;;;;;;;3.83;2.00;;;13.70;87.20;;;;;;5074978;28;20459;-75
2021/07/12 03:57:40;;;;;;;3.40;2.10;;;13.70;87.20;;;;;;5074753;28;20024;-76
2021/07/12 04:00:08;;;;;;;4.35;2.00;;;13.70;87.40;;;;;;5075052;28;20051;-75
2021/07/12 04:02:33;;;;;;;2.67;1.75;;;13.70;87.40;;;;;;5074795;28;20128;-76
2021/07/12 04:04:59;;;;;;;2.22;1.77;;;13.70;87.40;;;;;;5075042;28;20532;-75
2021/07/12 04:07:24;;;;;;;4.88;1.67;;;13.70;87.10;;;;;;5074681;28;20061;-76
2021/07/12 04:09:50;;;;;;;2.15;1.90;;;13.80;86.90;;;;;;5074850;28;20027;-74
2021/07/12 04:12:23;;;;;;;3.60;1.52;;;13.80;86.90;;;;;;5074931;28;20023;-74
2021/07/12 04:14:52;;;;;;;2.63;1.83;;;13.90;87.00;;;;;;5074812;28;20177;-74
2021/07/12 04:17:19;;;;;;;3.03;1.85;;;13.80;86.90;;;;;;5074870;28;20072;-74
2021/07/12 04:19:44;;;;;;;3.78;1.90;;;13.90;87.30;;;;;;5074791;28;20020;-74
2021/07/12 04:22:10;;;;;;;4.25;1.90;;;13.90;87.00;;;;;;5074754;28;20032;-74
2021/07/12 04:24:36;;;;;;;2.50;1.95;;;14.00;86.50;;;;;;5074412;28;20023;-74
2021/07/12 04:27:02;;;;;;;5.07;2.20;;;14.00;86.20;;;;;;5074822;28;20472;-74
2021/07/12 04:29:27;;;;;;;4.47;2.00;;;14.10;86.10;;;;;;5075452;28;20028;-74
2021/07/12 04:31:55;;;;;;;2.30;2.03;;;14.10;85.60;;;;;;5078700;28;20487;-74
2021/07/12 04:34:20;;;;;;;3.22;1.60;;;14.10;85.40;;;;;;5078526;28;20020;-73
2021/07/12 04:36:46;;;;;;;2.72;1.98;;;14.00;85.60;;;;;;5078384;28;20024;-73
2021/07/12 04:39:11;;;;;;;2.40;1.90;;;14.10;85.60;;;;;;5078732;28;20132;-74
2021/07/12 04:41:37;;;;;;;2.40;1.80;;;14.10;85.50;;;;;;5078640;28;20027;-74
2021/07/12 04:44:03;;;;;;;2.72;2.00;;;14.20;85.30;;;;;;5078727;28;20071;-74
2021/07/12 04:46:28;;;;;;;3.28;2.17;;;14.30;85.00;;;;;;5078580;28;20488;-73
2021/07/12 04:48:54;;;;;;;2.67;2.38;;;14.30;85.00;;;;;;5078742;28;20538;-74
2021/07/12 04:51:20;;;;;;;3.13;2.20;;;14.40;84.40;;;;;;5096911;28;20028;-74
2021/07/12 04:53:45;;;;;;;5.57;2.53;;;14.50;84.70;;;;;;5096385;28;20044;-74
2021/07/12 04:56:11;;;;;;;4.03;1.90;;;14.60;84.30;;;;;;5096539;28;20114;-75
2021/07/12 04:58:43;;;;;;;4.55;1.90;;;14.60;83.90;;;;;;5096364;28;20099;-75
2021/07/12 05:01:09;;;;;;;3.40;1.83;;;14.70;83.50;;;;;;5096502;28;20020;-75
2021/07/12 05:03:34;;;;;;;3.55;2.20;;;14.70;83.00;;;;;;5096351;28;20024;-75
2021/07/12 05:06:00;;;;;;;2.72;1.90;;;14.80;82.30;;;;;;5078325;28;20024;-75
2021/07/12 05:08:26;;;;;;;4.50;2.05;;;14.90;82.20;;;;;;5097993;28;20032;-75
2021/07/12 05:10:51;;;;;;;4.57;1.90;;;15.00;81.90;;;;;;5098429;28;20087;-75
2021/07/12 05:13:17;;;;;;;2.75;2.30;;;15.00;82.00;;;;;;5096976;28;20020;-75
2021/07/12 05:15:43;;;;;;;2.95;2.10;;;15.10;82.00;;;;;;5097217;28;20127;-75
2021/07/12 05:18:09;;;;;;;5.13;2.35;;;15.20;81.60;;;;;;5102720;28;20074;-74
2021/07/12 05:20:34;;;;;;;5.13;2.33;;;15.30;81.70;;;;;;5099950;28;20074;-75
2021/07/12 05:23:01;;;;;;;4.68;1.80;;;15.40;81.40;;;;;;5097178;28;20020;-75
2021/07/12 05:25:26;;;;;;;4.78;2.25;;;15.50;80.90;;;;;;5095853;28;20034;-76
2021/07/12 05:27:53;;;;;;;2.75;1.80;;;15.70;80.50;;;;;;5099684;28;20046;-75
2021/07/12 05:30:19;;;;;;;3.25;2.20;;;15.80;80.20;;;;;;5098194;28;20106;-75
2021/07/12 05:32:45;;;;;;;2.13;1.85;;;15.90;79.90;;;;;;5096456;28;20020;-75
2021/07/12 05:35:11;;;;;;;2.40;1.80;;;16.00;79.50;;;;;;5096655;28;20074;-75
2021/07/12 05:37:37;;;;;;;3.00;1.85;;;16.00;79.70;;;;;;5095354;28;20024;-75
2021/07/12 05:40:05;;;;;;;5.35;1.95;;;16.00;79.40;;;;;;5095291;28;20020;-75
2021/07/12 05:42:30;;;;;;;2.40;2.00;;;16.20;79.10;;;;;;5094815;28;20036;-75
2021/07/12 05:44:56;;;;;;;2.10;1.80;;;16.20;78.90;;;;;;5095967;28;20082;-75
2021/07/12 05:47:22;;;;;;;6.07;1.80;;;16.30;79.00;;;;;;5095522;28;20024;-75
2021/07/12 05:49:48;;;;;;;3.70;2.15;;;16.40;78.70;;;;;;5096296;28;20024;-75
2021/07/12 05:52:13;;;;;;;2.85;1.98;;;16.70;78.30;;;;;;5094669;28;20040;-76
2021/07/12 05:54:39;;;;;;;4.85;2.22;;;16.80;77.70;;;;;;5095666;28;20099;-76
2021/07/12 05:57:05;;;;;;;6.25;2.20;;;17.00;77.20;;;;;;5098009;28;20079;-75
2021/07/12 05:59:30;;;;;;;3.22;2.08;;;17.10;76.50;;;;;;5098527;28;20020;-75
2021/07/12 06:01:56;;;;;;;2.28;1.60;;;17.30;76.20;;;;;;5100739;28;20032;-76
2021/07/12 06:04:21;;;;;;;8.73;1.77;;;17.40;76.20;;;;;;5098062;28;20059;-77
2021/07/12 06:06:47;;;;;;;2.33;1.83;;;17.70;75.70;;;;;;5095085;28;20024;-76
2021/07/12 06:09:13;;;;;;;3.42;2.60;;;17.80;74.80;;;;;;5095298;28;20051;-75
2021/07/12 06:11:39;;;;;;;4.47;3.42;;;18.00;74.20;;;;;;5094943;28;20040;-75
2021/07/12 06:14:04;;;;;;;2.00;1.77;;;18.20;73.60;;;;;;5095042;28;20035;-76
2021/07/12 06:16:30;;;;;;;3.60;2.30;;;18.40;73.20;;;;;;5094846;28;20044;-76
2021/07/12 06:18:56;;;;;;;4.90;2.28;;;18.60;72.50;;;;;;5094752;28;20016;-77
2021/07/12 06:21:21;;;;;;;3.90;1.85;;;18.70;72.20;;;;;;5094135;28;20379;-74
2021/07/12 06:23:47;;;;;;;4.00;1.77;;;18.80;71.80;;;;;;5094348;28;20043;-74
2021/07/12 06:26:12;;;;;;;1.67;1.33;;;18.90;71.60;;;;;;5094460;28;20024;-74
2021/07/12 06:28:38;;;;;;;2.65;1.17;;;19.10;71.90;;;;;;5094698;28;20028;-74
2021/07/12 06:31:04;;;;;;;2.75;1.48;;;19.30;70.70;;;;;;5094520;28;20060;-78
2021/07/12 06:33:29;;;;;;;3.60;1.73;;;19.50;73.40;;;;;;5076384;28;20024;-75
2021/07/12 06:35:58;;;;;;;3.78;1.65;;;19.80;70.50;;;;;;5096610;28;20108;-74
2021/07/12 06:38:23;;;;;;;12.25;4.10;;;20.00;69.70;;;;;;5095864;28;20091;-76
2021/07/12 06:40:49;;;;;;;8.95;2.88;;;20.20;68.20;;;;;;5094497;28;20105;-74
2021/07/12 06:43:15;;;;;;;6.15;2.38;;;20.40;67.80;;;;;;5094419;28;20020;-72
2021/07/12 06:45:40;;;;;;;6.95;1.83;;;20.60;66.60;;;;;;5094202;28;20056;-73
2021/07/12 06:48:06;;;;;;;2.50;1.60;;;20.90;66.10;;;;;;5094265;28;20020;-72
2021/07/12 06:50:32;;;;;;;2.65;1.70;;;20.90;65.10;;;;;;5094234;28;20020;-75
2021/07/12 06:52:59;;;;;;;5.75;2.03;;;20.90;65.90;;;;;;5091558;28;20044;-73
2021/07/12 06:55:24;;;;;;;3.08;1.40;;;21.10;65.80;;;;;;5093911;28;20024;-74
2021/07/12 06:57:51;;;;;;;2.40;1.55;;;21.10;66.40;;;;;;5076078;28;20048;-75
2021/07/12 07:00:17;;;;;;;3.92;1.45;;;21.10;66.40;;;;;;5094025;28;20095;-72
2021/07/12 07:02:42;;;;;;;3.10;1.35;;;21.10;66.60;;;;;;5093965;28;20085;-73
2021/07/12 07:05:09;;;;;;;1.70;1.60;;;21.10;66.40;;;;;;5093840;28;20380;-73
2021/07/12 07:07:35;;;;;;;3.72;1.60;;;21.10;66.20;;;;;;5093905;28;20024;-71
2021/07/12 07:10:04;;;;;;;3.25;1.65;;;21.00;65.90;;;;;;5093647;28;20027;-71
2021/07/12 07:12:29;;;;;;;1.60;1.40;;;20.90;66.40;;;;;;5093556;28;20537;-72
2021/07/12 07:14:55;;;;;;;3.63;1.40;;;21.00;65.90;;;;;;5075584;28;20055;-72
2021/07/12 07:17:21;;;;;;;1.70;1.40;;;21.10;65.00;;;;;;5093796;28;20051;-74
2021/07/12 07:19:46;;;;;;;2.13;1.40;;;21.10;64.00;;;;;;5093635;28;20479;-72
2021/07/12 07:22:12;;;;;;;4.30;1.63;;;21.10;62.00;;;;;;5075401;28;20495;-73
2021/07/12 07:24:37;;;;;;;1.52;1.15;;;21.30;63.10;;;;;;5093578;28;20028;-72
2021/07/12 07:27:03;;;;;;;2.95;1.42;;;21.30;61.60;;;;;;5092967;28;20031;-74
2021/07/12 07:29:29;;;;;;;2.97;1.75;;;21.40;59.40;;;;;;5092383;28;20085;-73
2021/07/12 07:31:54;;;;;;;1.60;1.30;;;21.40;60.00;;;;;;5093184;28;20020;-73
2021/07/12 07:34:20;;;;;;;4.32;1.40;;;21.40;58.80;;;;;;5093457;28;20021;-73
2021/07/12 07:36:45;;;;;;;1.30;1.20;;;21.40;59.20;;;;;;5093193;28;20468;-73
2021/07/12 07:39:11;;;;;;;1.90;1.48;;;21.40;59.00;;;;;;5093149;28;20031;-75
2021/07/12 07:41:37;;;;;;;2.35;1.10;;;21.60;58.10;;;;;;5093288;28;20027;-74
2021/07/12 07:44:04;;;;;;;1.40;1.30;;;21.60;58.20;;;;;;5093359;28;20103;-74
2021/07/12 07:46:31;;;;;;;1.42;1.15;;;21.70;57.60;;;;;;5093170;28;20036;-74
2021/07/12 07:48:56;;;;;;;3.33;1.27;;;21.60;56.30;;;;;;5075187;28;20055;-73
2021/07/12 07:51:22;;;;;;;2.25;1.42;;;21.70;56.40;;;;;;5092903;28;20060;-73
2021/07/12 07:53:47;;;;;;;1.23;1.00;;;21.70;55.90;;;;;;5093072;28;20500;-72
2021/07/12 07:56:13;;;;;;;1.55;1.00;;;21.80;55.90;;;;;;5093225;28;20055;-74
2021/07/12 07:58:39;;;;;;;2.67;1.45;;;21.80;55.30;;;;;;5092847;28;20028;-74
2021/07/12 08:01:04;;;;;;;2.15;1.13;;;21.80;55.30;;;;;;5093319;28;20024;-74
2021/07/12 08:03:30;;;;;;;9.95;1.30;;;21.90;54.20;;;;;;5092794;28;20063;-74
2021/07/12 08:05:55;;;;;;;2.85;1.20;;;22.00;55.50;;;;;;5092624;28;20039;-74
2021/07/12 08:08:21;;;;;;;1.08;0.98;;;22.10;54.60;;;;;;5093130;28;20376;-74
2021/07/12 08:10:46;;;;;;;2.00;1.65;;;22.20;55.00;;;;;;5092795;28;20024;-75
2021/07/12 08:13:13;;;;;;;2.90;1.63;;;22.30;54.80;;;;;;5092644;28;20519;-75
2021/07/12 08:15:39;;;;;;;4.15;1.30;;;22.40;56.00;;;;;;5092800;28;20040;-79
2021/07/12 08:18:05;;;;;;;2.22;1.95;;;22.50;54.80;;;;;;5092914;28;20051;-78
2021/07/12 08:20:32;;;;;;;1.48;1.35;;;22.60;54.70;;;;;;5092746;28;20028;-76
2021/07/12 08:22:57;;;;;;;2.42;0.98;;;22.60;53.80;;;;;;5092610;28;20023;-73
2021/07/12 08:25:24;;;;;;;1.75;1.17;;;22.60;54.70;;;;;;5092625;28;20024;-74
2021/07/12 08:27:51;;;;;;;2.35;1.25;;;22.70;54.40;;;;;;5092350;28;20027;-73
2021/07/12 08:30:17;;;;;;;1.23;1.13;;;22.70;54.30;;;;;;5092463;28;20081;-74
2021/07/12 08:32:44;;;;;;;2.15;1.45;;;22.80;54.40;;;;;;5092383;28;20126;-73
2021/07/12 08:35:11;;;;;;;3.53;1.50;;;22.80;55.40;;;;;;5074413;28;20059;-73
2021/07/12 08:37:37;;;;;;;1.98;1.20;;;22.90;55.50;;;;;;5092493;28;20544;-73
2021/07/12 08:40:08;;;;;;;1.88;1.10;;;22.90;54.50;;;;;;5092256;28;20032;-74
2021/07/12 08:42:34;;;;;;;3.00;1.40;;;22.90;54.80;;;;;;5092203;28;20024;-74
2021/07/12 08:45:00;;;;;;;2.15;1.40;;;23.10;56.00;;;;;;5092436;28;20357;-73
2021/07/12 08:47:25;;;;;;;1.50;1.30;;;23.20;54.00;;;;;;5092400;28;20028;-73
2021/07/12 08:49:51;;;;;;;4.03;1.25;;;23.20;54.50;;;;;;5092698;28;20376;-73
2021/07/12 08:52:17;;;;;;;2.58;1.40;;;23.30;54.20;;;;;;5092384;28;20105;-74
2021/07/12 08:54:42;;;;;;;1.67;1.48;;;23.40;54.40;;;;;;5092494;28;20588;-74
2021/07/12 08:57:09;;;;;;;4.43;1.52;;;23.60;54.80;;;;;;5092666;28;20032;-74
2021/07/12 08:59:40;;;;;;;3.40;1.63;;;23.70;53.50;;;;;;5092389;28;20026;-74
2021/07/12 09:02:13;;;;;;;2.17;1.83;;;23.80;53.50;;;;;;5092469;28;20111;-74
2021/07/12 09:04:51;;;;;;;4.18;1.40;;;23.80;53.90;;;;;;5074120;28;20056;-74
2021/07/12 09:07:24;;;;;;;2.78;1.60;;;24.00;52.50;;;;;;5092359;28;20353;-74
2021/07/12 09:09:57;;;;;;;1.70;1.25;;;24.00;51.00;;;;;;5092331;28;20024;-74
2021/07/12 09:12:23;;;;;;;2.95;1.30;;;24.00;50.10;;;;;;5092231;28;20024;-74
2021/07/12 09:15:10;;;;;;;2.15;1.25;;;23.90;50.60;;;;;;5092277;28;20044;-76
2021/07/12 09:17:38;;;;;;;1.50;1.35;;;24.00;51.70;;;;;;5095912;28;20085;-74
2021/07/12 09:20:08;;;;;;;1.52;1.38;;;24.00;51.80;;;;;;5095973;28;20060;-74
2021/07/12 09:22:37;;;;;;;1.40;1.30;;;24.20;52.10;;;;;;5096204;28;20024;-74
2021/07/12 09:25:06;;;;;;;1.40;1.30;;;24.20;52.70;;;;;;5095930;28;20028;-74
2021/07/12 09:27:33;;;;;;;1.20;1.02;;;24.30;50.60;;;;;;5095599;28;20022;-73
2021/07/12 09:30:08;;;;;;;1.85;1.33;;;24.20;48.90;;;;;;5095409;28;20371;-74
2021/07/12 09:32:36;;;;;;;1.75;1.30;;;24.20;50.00;;;;;;5095490;28;20012;-74
2021/07/12 09:35:07;;;;;;;1.83;1.50;;;24.30;50.60;;;;;;5095427;28;20095;-74
2021/07/12 09:37:34;;;;;;;1.35;1.17;;;24.50;51.60;;;;;;5095349;28;20032;-74
2021/07/12 09:40:03;;;;;;;1.75;1.38;;;24.60;50.20;;;;;;5095280;28;20028;-75
2021/07/12 09:42:33;;;;;;;1.95;1.65;;;24.60;50.70;;;;;;5095261;28;20024;-74
2021/07/12 09:45:00;;;;;;;1.80;1.42;;;24.70;49.30;;;;;;5095338;28;20031;-74
2021/07/12 09:47:31;;;;;;;2.30;1.48;;;24.80;48.20;;;;;;5095286;28;20327;-74
2021/07/12 09:50:03;;;;;;;1.83;1.27;;;24.90;48.70;;;;;;5095400;28;20529;-73
2021/07/12 09:52:41;;;;;;;1.08;0.88;;;24.90;47.90;;;;;;5094932;28;20487;-74
2021/07/12 09:55:08;;;;;;;1.60;1.50;;;25.10;48.80;;;;;;5095053;28;20020;-74
2021/07/12 09:57:34;;;;;;;1.95;1.38;;;25.10;47.60;;;;;;5094794;28;20503;-75
2021/07/12 10:00:06;;;;;;;2.92;1.40;;;25.30;47.50;;;;;;5094606;28;20107;-74
2021/07/12 10:02:34;;;;;;;4.57;1.40;;;25.40;47.50;;;;;;5094644;28;20020;-76
2021/07/12 10:05:03;;;;;;;1.45;1.35;;;25.50;44.70;;;;;;5094605;28;20388;-74
2021/07/12 10:07:29;;;;;;;4.18;1.50;;;25.50;45.30;;;;;;5094070;28;20416;-75
2021/07/12 10:09:57;;;;;;;1.63;1.33;;;25.30;45.70;;;;;;5095013;28;20020;-76
2021/07/12 10:12:24;;;;;;;2.70;1.48;;;25.30;45.60;;;;;;5094574;28;20028;-75
2021/07/12 10:14:50;;;;;;;1.40;1.30;;;25.40;45.60;;;;;;5094475;28;20090;-74
2021/07/12 10:17:16;;;;;;;4.78;1.50;;;25.50;45.40;;;;;;5094465;28;20020;-75
2021/07/12 10:19:44;;;;;;;1.73;1.30;;;25.60;45.20;;;;;;5094373;28;20107;-74
2021/07/12 10:22:12;;;;;;;2.05;1.33;;;25.70;46.00;;;;;;5094536;28;20051;-75
2021/07/12 10:24:42;;;;;;;1.52;1.42;;;25.90;46.90;;;;;;5094175;28;20441;-75
2021/07/12 10:27:25;;;;;;;3.00;1.50;;;26.20;45.80;;;;;;5093733;28;20026;-74
2021/07/12 10:29:53;;;;;;;1.83;1.40;;;26.10;43.80;;;;;;5094362;28;20040;-75
2021/07/12 10:32:23;;;;;;;2.47;1.50;;;26.30;44.70;;;;;;5094334;28;20020;-74
2021/07/12 10:34:54;;;;;;;1.77;1.30;;;26.40;44.60;;;;;;5075778;28;20028;-75
2021/07/12 10:37:29;;;;;;;1.27;1.17;;;26.50;44.60;;;;;;5093984;28;20085;-75
2021/07/12 10:40:05;;;;;;;2.38;1.60;;;26.70;45.40;;;;;;5093819;28;20021;-73
2021/07/12 10:42:45;;;;;;;1.67;1.40;;;26.80;44.90;;;;;;5094001;28;20028;-73
2021/07/12 10:45:29;;;;;;;1.67;1.30;;;26.90;43.90;;;;;;5094136;28;20024;-74
2021/07/12 10:47:57;;;;;;;2.30;1.25;;;26.90;42.70;;;;;;5093757;28;20505;-74
2021/07/12 10:50:38;;;;;;;3.25;1.70;;;27.00;42.40;;;;;;5093460;28;20024;-75
2021/07/12 10:53:09;;;;;;;2.05;1.50;;;27.00;42.40;;;;;;5093494;28;20044;-76
2021/07/12 10:55:35;;;;;;;1.52;1.42;;;27.00;43.00;;;;;;5093347;28;20032;-74
2021/07/12 10:58:24;;;;;;;1.40;1.05;;;27.20;43.20;;;;;;5093781;28;20086;-74
2021/07/12 11:00:50;;;;;;;1.60;1.40;;;27.30;41.20;;;;;;5080839;28;20033;-74
2021/07/12 11:03:42;;;;;;;2.65;1.45;;;27.40;42.40;;;;;;5093434;28;20031;-74
2021/07/12 11:06:10;;;;;;;1.58;1.48;;;27.70;43.40;;;;;;5093648;28;20436;-74
2021/07/12 11:08:46;;;;;;;2.05;1.33;;;27.90;42.80;;;;;;5075453;28;20026;-73
2021/07/12 11:11:18;;;;;;;2.03;1.40;;;27.90;40.10;;;;;;5093535;28;20055;-75
2021/07/12 11:13:57;;;;;;;1.50;1.00;;;27.90;39.10;;;;;;5093586;28;20030;-75
2021/07/12 11:16:34;;;;;;;5.88;1.50;;;27.80;41.40;;;;;;5093242;28;20043;-75
2021/07/12 11:19:17;;;;;;;2.63;1.40;;;27.80;40.00;;;;;;5093522;28;20499;-74
2021/07/12 11:21:42;;;;;;;1.55;1.45;;;27.50;39.30;;;;;;5093566;28;20543;-75
2021/07/12 11:24:08;;;;;;;2.85;1.20;;;27.40;40.60;;;;;;5093423;28;20020;-75
2021/07/12 11:26:34;;;;;;;1.77;1.65;;;27.40;41.20;;;;;;5093520;28;20104;-74
2021/07/12 11:29:10;;;;;;;2.03;1.60;;;27.40;41.00;;;;;;5094110;28;20042;-79
2021/07/12 11:31:42;;;;;;;3.95;1.55;;;27.60;39.60;;;;;;5098453;28;20069;-77
2021/07/12 11:34:21;;;;;;;1.33;1.23;;;27.80;39.20;;;;;;5097818;28;20059;-75
2021/07/12 11:37:03;;;;;;;2.20;1.30;;;27.80;39.50;;;;;;5094690;28;20100;-76
2021/07/12 11:39:31;;;;;;;6.05;1.60;;;27.80;39.60;;;;;;5092540;28;20538;-76
2021/07/12 11:41:58;;;;;;;1.33;1.20;;;28.00;40.90;;;;;;5093450;28;20110;-76
2021/07/12 11:44:25;;;;;;;2.03;1.50;;;28.40;40.10;;;;;;5093211;28;20411;-75
2021/07/12 11:46:51;;;;;;;2.47;1.50;;;28.50;40.40;;;;;;5093199;28;20500;-75
2021/07/12 11:49:20;;;;;;;1.48;1.35;;;28.70;39.30;;;;;;5096925;28;20043;-75
2021/07/12 11:51:55;;;;;;;1.65;1.30;;;29.00;39.20;;;;;;5093521;28;20103;-76
2021/07/12 11:54:29;;;;;;;2.40;1.90;;;29.30;38.00;;;;;;5093645;28;20059;-77
2021/07/12 11:56:56;;;;;;;1.63;1.40;;;29.50;36.80;;;;;;5093186;28;20032;-76
2021/07/12 11:59:35;;;;;;;5.22;1.50;;;29.60;38.50;;;;;;5092921;28;20051;-77
2021/07/12 12:02:09;;;;;;;1.35;1.25;;;29.30;37.80;;;;;;5092994;28;20056;-77
2021/07/12 12:04:51;;;;;;;1.38;1.13;;;29.70;37.90;;;;;;5092717;28;20035;-78
2021/07/12 12:07:27;;;;;;;1.42;1.05;;;30.20;37.90;;;;;;5093666;28;20024;-78
2021/07/12 12:10:02;;;;;;;1.48;1.38;;;30.30;36.60;;;;;;5095132;28;20064;-75
2021/07/12 12:12:31;;;;;;;3.47;1.40;;;30.70;36.00;;;;;;5093358;28;20031;-73
2021/07/12 12:15:21;;;;;;;1.30;1.20;;;31.00;36.40;;;;;;5092735;28;20098;-74
2021/07/12 12:17:58;;;;;;;2.80;1.42;;;31.20;36.80;;;;;;5075110;28;20050;-73
2021/07/12 12:20:29;;;;;;;2.17;1.50;;;31.30;35.10;;;;;;5093026;28;20400;-74
2021/07/12 12:23:00;;;;;;;1.38;1.00;;;31.20;34.70;;;;;;5092860;28;20031;-74
2021/07/12 12:25:28;;;;;;;1.88;1.50;;;31.30;35.30;;;;;;5092946;28;20024;-75
2021/07/12 12:27:53;;;;;;;3.22;1.40;;;31.50;35.10;;;;;;5094590;28;20107;-75
2021/07/12 12:30:19;;;;;;;1.42;1.33;;;31.80;34.20;;;;;;5093644;28;20070;-73
2021/07/12 12:32:54;;;;;;;2.08;1.50;;;31.70;34.00;;;;;;5092516;28;20528;-73
2021/07/12 12:35:20;;;;;;;;;;;31.70;34.30;;;;;;5093126;28;20052;-75
2021/07/12 12:37:47;;;;;;;1.83;1.38;;;31.60;34.40;;;;;;5092630;28;20284;-74
2021/07/12 12:40:20;;;;;;;1.45;1.35;;;31.80;34.30;;;;;;5092432;28;20012;-73
2021/07/12 12:42:47;;;;;;;2.10;1.70;;;31.90;34.30;;;;;;5092406;28;20020;-74
2021/07/12 12:45:26;;;;;;;4.30;1.50;;;31.80;33.90;;;;;;5092444;28;20039;-73
2021/07/12 12:47:53;;;;;;;4.00;1.70;;;31.60;34.00;;;;;;5092319;28;20035;-73
2021/07/12 12:50:20;;;;;;;2.70;1.52;;;31.70;34.10;;;;;;5092915;28;20095;-73
2021/07/12 12:52:45;;;;;;;2.78;1.52;;;30.90;34.90;;;;;;5096083;28;20094;-73
2021/07/12 12:55:12;;;;;;;3.03;1.70;;;30.60;35.50;;;;;;5096485;28;20032;-72
2021/07/12 12:57:47;;;;;;;3.92;1.70;;;30.80;36.20;;;;;;5096337;28;20422;-76